createdAt,value
2022-10-03T00:00:16.682Z,6
2022-10-03T00:01:16.878Z,6
2022-10-03T00:02:16.792Z,6
2022-10-03T00:03:16.850Z,5
2022-10-03T00:04:16.716Z,5
2022-10-03T00:05:16.712Z,6
2022-10-03T00:06:16.712Z,6
2022-10-03T00:07:16.726Z,7
2022-10-03T00:08:16.727Z,7
2022-10-03T00:09:16.731Z,7
2022-10-03T00:10:16.748Z,6
2022-10-03T00:11:16.768Z,7
2022-10-03T00:12:16.681Z,8
2022-10-03T00:13:16.756Z,8
2022-10-03T00:14:16.816Z,8
2022-10-03T00:15:16.776Z,8
2022-10-03T00:16:16.749Z,8
2022-10-03T00:17:16.800Z,9
2022-10-03T00:18:16.797Z,9
2022-10-03T00:19:16.720Z,9
2022-10-03T00:20:16.707Z,9
2022-10-03T00:21:16.712Z,10
2022-10-03T00:22:16.661Z,9
2022-10-03T00:23:16.724Z,10
2022-10-03T00:24:16.707Z,9
2022-10-03T00:25:16.744Z,10
2022-10-03T00:26:16.918Z,10
2022-10-03T00:27:16.748Z,10
2022-10-03T00:28:16.864Z,10
2022-10-03T00:29:16.780Z,10
2022-10-03T00:30:16.770Z,10
2022-10-03T00:31:16.849Z,11
2022-10-03T00:32:16.781Z,10
2022-10-03T00:33:16.788Z,11
2022-10-03T00:34:16.706Z,11
2022-10-03T00:35:16.712Z,11
2022-10-03T00:36:16.714Z,12
2022-10-03T00:37:16.718Z,11
2022-10-03T00:38:16.673Z,12
2022-10-03T00:39:16.752Z,12
2022-10-03T00:40:16.827Z,12
2022-10-03T00:41:16.755Z,12
2022-10-03T00:42:16.742Z,12
2022-10-03T00:43:16.758Z,12
2022-10-03T00:44:16.777Z,11
2022-10-03T00:45:16.764Z,13
2022-10-03T00:46:16.891Z,13
2022-10-03T00:47:16.683Z,12
2022-10-03T00:48:16.725Z,12
2022-10-03T00:49:16.794Z,13
2022-10-03T00:50:16.681Z,13
2022-10-03T00:51:16.690Z,12
2022-10-03T00:52:16.672Z,12
2022-10-03T00:53:16.721Z,12
2022-10-03T00:54:16.977Z,12
2022-10-03T00:55:17.053Z,12
2022-10-03T00:56:17.080Z,13
2022-10-03T00:57:17.114Z,12
2022-10-03T00:58:16.667Z,14
2022-10-03T00:59:16.700Z,12
2022-10-03T01:00:16.709Z,13
2022-10-03T01:01:16.742Z,12
2022-10-03T01:02:16.716Z,12
2022-10-03T01:03:16.678Z,11
2022-10-03T01:04:16.728Z,11
2022-10-03T01:05:16.687Z,12
2022-10-03T01:06:16.660Z,12
2022-10-03T01:07:16.656Z,12
2022-10-03T01:08:16.686Z,11
2022-10-03T01:09:16.677Z,12
2022-10-03T01:10:16.658Z,11
2022-10-03T01:11:16.742Z,12
2022-10-03T01:12:16.700Z,12
2022-10-03T01:13:16.675Z,13
2022-10-03T01:14:16.786Z,13
2022-10-03T01:15:16.660Z,11
2022-10-03T01:16:16.739Z,12
2022-10-03T01:17:16.765Z,11
2022-10-03T01:18:16.659Z,13
2022-10-03T01:19:16.726Z,12
2022-10-03T01:20:16.700Z,13
2022-10-03T01:21:16.739Z,13
2022-10-03T01:22:16.824Z,12
2022-10-03T01:23:16.676Z,12
2022-10-03T01:24:16.726Z,13
2022-10-03T01:25:16.712Z,12
2022-10-03T01:26:16.764Z,12
2022-10-03T01:27:16.741Z,11
2022-10-03T01:28:17.050Z,11
2022-10-03T01:29:17.003Z,12
2022-10-03T01:30:16.656Z,12
2022-10-03T01:31:16.752Z,11
2022-10-03T01:32:16.667Z,11
2022-10-03T01:33:16.667Z,12
2022-10-03T01:34:16.688Z,11
2022-10-03T01:35:16.717Z,12
2022-10-03T01:36:16.667Z,11
2022-10-03T01:37:16.660Z,12
2022-10-03T01:38:16.674Z,12
2022-10-03T01:39:16.673Z,11
2022-10-03T01:40:16.683Z,11
2022-10-03T01:41:16.670Z,12
2022-10-03T01:42:16.727Z,11
2022-10-03T01:43:16.711Z,11
2022-10-03T01:44:16.699Z,12
2022-10-03T01:45:16.724Z,11
2022-10-03T01:46:16.742Z,12
2022-10-03T01:47:16.663Z,12
2022-10-03T01:48:16.665Z,11
2022-10-03T01:49:16.683Z,11
2022-10-03T01:50:16.723Z,12
2022-10-03T01:51:16.725Z,12
2022-10-03T01:52:16.665Z,11
2022-10-03T01:53:16.673Z,11
2022-10-03T01:54:16.691Z,11
2022-10-03T01:55:16.666Z,11
2022-10-03T01:56:16.738Z,11
2022-10-03T01:57:16.730Z,10
2022-10-03T01:58:16.849Z,12
2022-10-03T01:59:16.811Z,11
2022-10-03T02:00:16.719Z,11
2022-10-03T02:01:16.779Z,11
2022-10-03T02:02:16.789Z,12
2022-10-03T02:03:16.754Z,12
2022-10-03T02:04:16.779Z,11
2022-10-03T02:05:16.677Z,12
2022-10-03T02:06:16.729Z,12
2022-10-03T02:07:16.680Z,12
2022-10-03T02:08:16.682Z,12
2022-10-03T02:09:16.801Z,12
2022-10-03T02:10:16.792Z,11
2022-10-03T02:11:16.728Z,11
2022-10-03T02:12:16.727Z,12
2022-10-03T02:13:16.809Z,12
2022-10-03T02:14:16.833Z,12
2022-10-03T02:15:16.740Z,11
2022-10-03T02:16:16.851Z,13
2022-10-03T02:17:16.674Z,12
2022-10-03T02:18:16.738Z,12
2022-10-03T02:19:16.782Z,13
2022-10-03T02:20:16.687Z,12
2022-10-03T02:21:16.759Z,13
2022-10-03T02:22:16.743Z,14
2022-10-03T02:23:16.779Z,12
2022-10-03T02:24:16.805Z,15
2022-10-03T02:25:16.684Z,14
2022-10-03T02:26:16.737Z,13
2022-10-03T02:27:16.705Z,13
2022-10-03T02:28:16.772Z,13
2022-10-03T02:29:16.847Z,13
2022-10-03T02:30:16.702Z,14
2022-10-03T02:31:16.760Z,14
2022-10-03T02:32:16.728Z,13
2022-10-03T02:33:16.695Z,14
2022-10-03T02:34:16.760Z,14
2022-10-03T02:35:16.757Z,13
2022-10-03T02:36:16.750Z,13
2022-10-03T02:37:16.775Z,13
2022-10-03T02:38:16.768Z,12
2022-10-03T02:39:16.792Z,13
2022-10-03T02:40:16.781Z,13
2022-10-03T02:41:16.777Z,13
2022-10-03T02:42:16.708Z,12
2022-10-03T02:43:16.674Z,13
2022-10-03T02:44:16.735Z,12
2022-10-03T02:45:16.818Z,13
2022-10-03T02:46:16.680Z,12
2022-10-03T02:47:16.733Z,12
2022-10-03T02:48:31.393Z,14
2022-10-03T02:49:16.762Z,13
2022-10-03T02:50:16.684Z,13
2022-10-03T02:51:16.750Z,13
2022-10-03T02:52:16.763Z,13
2022-10-03T02:53:16.764Z,13
2022-10-03T02:54:16.687Z,12
2022-10-03T02:55:16.780Z,13
2022-10-03T02:56:16.784Z,13
2022-10-03T02:57:16.703Z,12
2022-10-03T02:58:16.668Z,12
2022-10-03T02:59:16.703Z,12
2022-10-03T03:00:16.840Z,12
2022-10-03T03:01:16.928Z,13
2022-10-03T03:02:16.797Z,13
2022-10-03T03:03:16.835Z,13
2022-10-03T03:04:16.746Z,14
2022-10-03T03:05:16.672Z,12
2022-10-03T03:06:16.711Z,13
2022-10-03T03:07:16.761Z,12
2022-10-03T03:08:16.780Z,12
2022-10-03T03:09:16.736Z,13
2022-10-03T03:10:16.781Z,12
2022-10-03T03:11:16.682Z,13
2022-10-03T03:12:16.694Z,13
2022-10-03T03:13:16.680Z,13
2022-10-03T03:14:16.707Z,13
2022-10-03T03:15:16.716Z,13
2022-10-03T03:16:16.737Z,13
2022-10-03T03:17:16.810Z,12
2022-10-03T03:18:16.763Z,12
2022-10-03T03:19:16.800Z,12
2022-10-03T03:20:16.731Z,12
2022-10-03T03:21:16.735Z,13
2022-10-03T03:22:16.863Z,13
2022-10-03T03:23:16.822Z,13
2022-10-03T03:24:16.740Z,13
2022-10-03T03:25:16.761Z,13
2022-10-03T03:26:16.766Z,13
2022-10-03T03:27:16.796Z,12
2022-10-03T03:28:16.861Z,13
2022-10-03T03:29:16.699Z,12
2022-10-03T03:30:16.713Z,13
2022-10-03T03:31:16.845Z,13
2022-10-03T03:32:17.177Z,14
2022-10-03T03:33:17.014Z,13
2022-10-03T03:34:17.082Z,14
2022-10-03T03:35:16.673Z,14
2022-10-03T03:36:16.735Z,13
2022-10-03T03:37:16.664Z,13
2022-10-03T03:38:16.747Z,13
2022-10-03T03:39:16.783Z,13
2022-10-03T03:40:16.755Z,12
2022-10-03T03:41:16.758Z,13
2022-10-03T03:42:16.900Z,13
2022-10-03T03:43:16.680Z,14
2022-10-03T03:44:17.118Z,13
2022-10-03T03:45:16.799Z,13
2022-10-03T03:46:16.707Z,14
2022-10-03T03:47:16.818Z,14
2022-10-03T03:48:16.815Z,13
2022-10-03T03:49:16.732Z,12
2022-10-03T03:50:16.718Z,14
2022-10-03T03:51:16.677Z,13
2022-10-03T03:52:16.733Z,13
2022-10-03T03:53:16.739Z,13
2022-10-03T03:54:16.704Z,13
2022-10-03T03:55:16.750Z,13
2022-10-03T03:56:16.762Z,13
2022-10-03T03:57:16.694Z,11
2022-10-03T03:58:16.775Z,10
2022-10-03T03:59:16.800Z,10
2022-10-03T04:00:16.741Z,11
2022-10-03T04:01:16.753Z,10
2022-10-03T04:02:16.847Z,10
2022-10-03T04:03:16.812Z,11
2022-10-03T04:04:16.694Z,11
2022-10-03T04:05:16.702Z,12
2022-10-03T04:06:16.717Z,11
2022-10-03T04:07:20.946Z,11
2022-10-03T04:08:16.671Z,11
2022-10-03T04:09:16.773Z,10
2022-10-03T04:10:16.740Z,11
2022-10-03T04:11:16.708Z,11
2022-10-03T04:12:16.774Z,12
2022-10-03T04:13:16.765Z,11
2022-10-03T04:14:16.782Z,11
2022-10-03T04:15:16.778Z,11
2022-10-03T04:16:16.759Z,12
2022-10-03T04:17:16.696Z,11
2022-10-03T04:18:16.801Z,11
2022-10-03T04:19:16.730Z,11
2022-10-03T04:20:16.713Z,9
2022-10-03T04:21:19.030Z,9
2022-10-03T04:22:16.718Z,9
2022-10-03T04:23:16.717Z,9
2022-10-03T04:24:16.752Z,10
2022-10-03T04:25:16.742Z,9
2022-10-03T04:26:16.760Z,10
2022-10-03T04:27:16.734Z,8
2022-10-03T04:28:16.790Z,10
2022-10-03T04:29:16.789Z,8
2022-10-03T04:30:16.767Z,10
2022-10-03T04:31:16.756Z,10
2022-10-03T04:32:16.872Z,8
2022-10-03T04:33:16.710Z,10
2022-10-03T04:34:16.731Z,11
2022-10-03T04:35:16.802Z,11
2022-10-03T04:36:16.710Z,10
2022-10-03T04:37:16.760Z,10
2022-10-03T04:38:16.841Z,10
2022-10-03T04:39:16.861Z,10
2022-10-03T04:40:16.866Z,10
2022-10-03T04:41:16.775Z,11
2022-10-03T04:42:16.739Z,10
2022-10-03T04:43:16.762Z,11
2022-10-03T04:44:16.697Z,9
2022-10-03T04:45:16.762Z,11
2022-10-03T04:46:16.730Z,11
2022-10-03T04:47:16.783Z,11
2022-10-03T04:48:16.862Z,11
2022-10-03T04:49:16.806Z,10
2022-10-03T04:50:17.159Z,10
2022-10-03T04:51:16.693Z,9
2022-10-03T04:52:16.721Z,9
2022-10-03T04:53:16.713Z,10
2022-10-03T04:54:16.737Z,10
2022-10-03T04:55:16.663Z,10
2022-10-03T04:56:16.678Z,9
2022-10-03T04:57:16.765Z,8
2022-10-03T04:58:16.753Z,10
2022-10-03T04:59:16.789Z,9
2022-10-03T05:00:16.754Z,10
2022-10-03T05:01:16.787Z,11
2022-10-03T05:02:16.807Z,9
2022-10-03T05:03:16.674Z,9
2022-10-03T05:04:16.725Z,10
2022-10-03T05:05:16.734Z,10
2022-10-03T05:06:16.730Z,10
2022-10-03T05:07:16.714Z,11
2022-10-03T05:08:16.723Z,11
2022-10-03T05:09:16.690Z,11
2022-10-03T05:10:16.670Z,9
2022-10-03T05:11:16.720Z,12
2022-10-03T05:12:16.748Z,11
2022-10-03T05:13:16.738Z,10
2022-10-03T05:14:16.783Z,9
2022-10-03T05:15:16.758Z,10
2022-10-03T05:16:16.697Z,9
2022-10-03T05:17:16.772Z,7
2022-10-03T05:18:16.793Z,8
2022-10-03T05:19:16.802Z,8
2022-10-03T05:20:16.791Z,8
2022-10-03T05:21:16.782Z,7
2022-10-03T05:22:16.711Z,8
2022-10-03T05:23:16.700Z,8
2022-10-03T05:24:16.689Z,9
2022-10-03T05:25:16.695Z,8
2022-10-03T05:26:43.526Z,8
2022-10-03T05:27:16.769Z,7
2022-10-03T05:28:16.876Z,9
2022-10-03T05:29:16.729Z,9
2022-10-03T05:30:16.754Z,9
2022-10-03T05:31:16.811Z,10
2022-10-03T05:32:16.762Z,10
2022-10-03T05:33:16.766Z,10
2022-10-03T05:34:16.793Z,12
2022-10-03T05:35:16.810Z,11
2022-10-03T05:36:16.713Z,12
2022-10-03T05:37:16.731Z,11
2022-10-03T05:38:16.691Z,11
2022-10-03T05:39:16.826Z,11
2022-10-03T05:40:16.703Z,11
2022-10-03T05:41:16.711Z,10
2022-10-03T05:42:23.355Z,11
2022-10-03T05:43:16.727Z,12
2022-10-03T05:44:16.762Z,11
2022-10-03T05:45:16.735Z,12
2022-10-03T05:46:16.852Z,11
2022-10-03T05:47:16.755Z,12
2022-10-03T05:48:16.765Z,12
2022-10-03T05:49:16.703Z,13
2022-10-03T05:50:18.397Z,14
2022-10-03T05:51:16.794Z,13
2022-10-03T05:52:16.784Z,13
2022-10-03T05:53:16.715Z,13
2022-10-03T05:54:16.818Z,13
2022-10-03T05:55:16.702Z,12
2022-10-03T05:56:16.715Z,11
2022-10-03T05:57:16.735Z,10
2022-10-03T05:58:16.729Z,11
2022-10-03T05:59:16.761Z,10
2022-10-03T06:00:16.713Z,10
2022-10-03T06:01:16.677Z,10
2022-10-03T06:02:16.923Z,10
2022-10-03T06:03:16.885Z,9
2022-10-03T06:04:16.785Z,10
2022-10-03T06:05:16.694Z,9
2022-10-03T06:06:16.829Z,10
2022-10-03T06:07:16.782Z,9
2022-10-03T06:08:16.788Z,9
2022-10-03T06:09:16.745Z,9
2022-10-03T06:10:16.702Z,9
2022-10-03T06:11:16.708Z,9
2022-10-03T06:12:16.745Z,9
2022-10-03T06:13:16.731Z,10
2022-10-03T06:14:16.726Z,10
2022-10-03T06:15:16.735Z,9
2022-10-03T06:16:16.796Z,11
2022-10-03T06:17:16.756Z,9
2022-10-03T06:18:16.852Z,10
2022-10-03T06:19:16.762Z,10
2022-10-03T06:20:16.766Z,10
2022-10-03T06:21:16.763Z,10
2022-10-03T06:22:16.830Z,10
2022-10-03T06:23:16.780Z,10
2022-10-03T06:24:16.802Z,10
2022-10-03T06:25:16.693Z,10
2022-10-03T06:26:16.694Z,9
2022-10-03T06:27:16.715Z,9
2022-10-03T06:28:16.750Z,9
2022-10-03T06:29:16.836Z,8
2022-10-03T06:30:16.875Z,9
2022-10-03T06:31:16.902Z,8
2022-10-03T06:32:16.782Z,9
2022-10-03T06:33:16.849Z,9
2022-10-03T06:34:16.881Z,9
2022-10-03T06:35:16.683Z,9
2022-10-03T06:36:16.768Z,8
2022-10-03T06:37:16.789Z,10
2022-10-03T06:38:16.782Z,9
2022-10-03T06:39:16.836Z,9
2022-10-03T06:40:16.669Z,8
2022-10-03T06:41:16.686Z,9
2022-10-03T06:42:16.718Z,8
2022-10-03T06:43:16.703Z,8
2022-10-03T06:44:16.687Z,9
2022-10-03T06:45:16.709Z,9
2022-10-03T06:46:16.911Z,8
2022-10-03T06:47:16.746Z,9
2022-10-03T06:48:16.740Z,9
2022-10-03T06:49:16.767Z,9
2022-10-03T06:50:16.760Z,9
2022-10-03T06:51:16.752Z,10
2022-10-03T06:52:16.672Z,9
2022-10-03T06:53:16.760Z,9
2022-10-03T06:54:16.799Z,9
2022-10-03T06:55:16.789Z,10
2022-10-03T06:56:16.678Z,10
2022-10-03T06:57:16.806Z,10
2022-10-03T06:58:16.691Z,12
2022-10-03T06:59:16.683Z,18
2022-10-03T07:00:16.719Z,16
2022-10-03T07:01:16.773Z,19
2022-10-03T07:02:16.815Z,17
2022-10-03T07:03:16.720Z,16
2022-10-03T07:04:16.685Z,11
2022-10-03T07:05:16.694Z,10
2022-10-03T07:06:16.683Z,10
2022-10-03T07:07:16.681Z,10
2022-10-03T07:08:16.712Z,10
2022-10-03T07:09:16.683Z,10
2022-10-03T07:10:16.744Z,10
2022-10-03T07:11:16.763Z,11
2022-10-03T07:12:16.690Z,10
2022-10-03T07:13:16.676Z,12
2022-10-03T07:14:16.800Z,12
2022-10-03T07:15:16.736Z,13
2022-10-03T07:16:32.206Z,12
2022-10-03T07:17:16.756Z,12
2022-10-03T07:18:16.835Z,10
2022-10-03T07:19:16.685Z,11
2022-10-03T07:20:16.776Z,11
2022-10-03T07:21:17.092Z,11
2022-10-03T07:22:16.753Z,11
2022-10-03T07:23:16.665Z,11
2022-10-03T07:24:16.765Z,12
2022-10-03T07:25:16.765Z,12
2022-10-03T07:26:16.890Z,12
2022-10-03T07:27:16.779Z,13
2022-10-03T07:28:16.861Z,14
2022-10-03T07:29:16.698Z,16
2022-10-03T07:30:16.694Z,15
2022-10-03T07:31:16.685Z,16
2022-10-03T07:32:16.687Z,17
2022-10-03T07:33:16.727Z,15
2022-10-03T07:34:16.747Z,16
2022-10-03T07:35:16.745Z,12
2022-10-03T07:36:16.786Z,13
2022-10-03T07:37:16.749Z,13
2022-10-03T07:38:16.759Z,13
2022-10-03T07:39:16.715Z,12
2022-10-03T07:40:16.778Z,13
2022-10-03T07:44:16.693Z,12
2022-10-03T07:45:16.736Z,12
2022-10-03T07:47:16.668Z,11
2022-10-03T07:48:16.683Z,12
2022-10-03T07:49:18.706Z,12
2022-10-03T07:50:16.716Z,11
2022-10-03T07:51:16.732Z,11
2022-10-03T07:52:16.673Z,10
2022-10-03T07:53:16.751Z,12
2022-10-03T07:54:16.779Z,11
2022-10-03T07:55:16.768Z,11
2022-10-03T07:56:16.765Z,10
2022-10-03T07:57:16.779Z,11
2022-10-03T07:58:16.713Z,11
2022-10-03T07:59:16.787Z,12
2022-10-03T08:00:16.797Z,11
2022-10-03T08:01:16.675Z,12
2022-10-03T08:02:16.745Z,11
2022-10-03T08:03:16.790Z,10
2022-10-03T08:04:16.820Z,10
2022-10-03T08:05:16.729Z,11
2022-10-03T08:06:16.716Z,11
2022-10-03T08:07:16.738Z,10
2022-10-03T08:08:16.742Z,10
2022-10-03T08:09:16.756Z,9
2022-10-03T08:10:16.785Z,10
2022-10-03T08:11:16.706Z,11
2022-10-03T08:12:16.782Z,10
2022-10-03T08:13:16.779Z,11
2022-10-03T08:14:16.688Z,12
2022-10-03T08:15:16.800Z,12
2022-10-03T08:16:16.854Z,10
2022-10-03T08:17:16.700Z,11
2022-10-03T08:18:16.695Z,11
2022-10-03T08:19:16.720Z,10
2022-10-03T08:20:16.833Z,12
2022-10-03T08:21:16.825Z,9
2022-10-03T08:22:16.727Z,10
2022-10-03T08:23:16.735Z,10
2022-10-03T08:24:16.716Z,11
2022-10-03T08:25:16.677Z,10
2022-10-03T08:26:16.756Z,10
2022-10-03T08:27:16.853Z,10
2022-10-03T08:28:16.860Z,10
2022-10-03T08:29:16.904Z,10
2022-10-03T08:30:16.815Z,10
2022-10-03T08:31:16.973Z,10
2022-10-03T08:32:16.783Z,9
2022-10-03T08:33:16.705Z,10
2022-10-03T08:34:16.696Z,9
2022-10-03T08:35:16.813Z,9
2022-10-03T08:36:16.825Z,8
2022-10-03T08:37:16.715Z,8
2022-10-03T08:38:16.685Z,9
2022-10-03T08:39:16.737Z,9
2022-10-03T08:40:16.771Z,9
2022-10-03T08:41:16.775Z,9
2022-10-03T08:42:16.731Z,8
2022-10-03T08:43:16.779Z,9
2022-10-03T08:44:16.780Z,9
2022-10-03T08:45:16.780Z,10
2022-10-03T08:46:16.924Z,9
2022-10-03T08:47:16.780Z,9
2022-10-03T08:48:16.792Z,9
2022-10-03T08:49:16.789Z,9
2022-10-03T08:50:16.727Z,9
2022-10-03T08:51:16.742Z,9
2022-10-03T08:52:16.819Z,9
2022-10-03T08:53:16.675Z,9
2022-10-03T08:54:16.684Z,10
2022-10-03T08:55:16.742Z,9
2022-10-03T08:56:16.696Z,9
2022-10-03T08:57:16.683Z,10
2022-10-03T08:58:16.685Z,10
2022-10-03T08:59:16.758Z,8
2022-10-03T09:00:16.774Z,9
2022-10-03T09:01:16.753Z,8
2022-10-03T09:02:16.843Z,9
2022-10-03T09:03:35.290Z,9
2022-10-03T09:04:16.961Z,9
2022-10-03T09:05:16.730Z,9
2022-10-03T09:06:16.812Z,8
2022-10-03T09:07:18.466Z,8
2022-10-03T09:08:16.805Z,8
2022-10-03T09:09:16.718Z,8
2022-10-03T09:10:16.750Z,8
2022-10-03T09:11:16.732Z,8
2022-10-03T09:12:16.703Z,11
2022-10-03T09:13:16.769Z,11
2022-10-03T09:14:16.734Z,11
2022-10-03T09:15:16.787Z,9
2022-10-03T09:16:18.693Z,9
2022-10-03T09:17:16.780Z,7
2022-10-03T09:18:16.683Z,7
2022-10-03T09:19:16.692Z,6
2022-10-03T09:20:16.722Z,7
2022-10-03T09:21:16.702Z,7
2022-10-03T09:22:16.733Z,7
2022-10-03T09:23:16.711Z,7
2022-10-03T09:24:16.689Z,8
2022-10-03T09:25:16.702Z,8
2022-10-03T09:26:16.687Z,7
2022-10-03T09:27:16.690Z,7
2022-10-03T09:28:16.716Z,6
2022-10-03T09:29:16.696Z,7
2022-10-03T09:30:16.795Z,7
2022-10-03T09:31:16.856Z,7
2022-10-03T09:32:16.693Z,7
2022-10-03T09:33:16.682Z,7
2022-10-03T09:34:16.782Z,7
2022-10-03T09:35:16.706Z,7
2022-10-03T09:36:16.687Z,5
2022-10-03T09:37:16.693Z,5
2022-10-03T09:38:16.737Z,6
2022-10-03T09:39:16.682Z,5
2022-10-03T09:40:17.305Z,6
2022-10-03T09:41:16.685Z,5
2022-10-03T09:42:16.679Z,6
2022-10-03T09:43:16.727Z,6
2022-10-03T09:44:16.701Z,6
2022-10-03T09:45:16.741Z,5
2022-10-03T09:46:16.765Z,4
2022-10-03T09:47:16.703Z,4
2022-10-03T09:48:16.693Z,4
2022-10-03T09:49:16.698Z,4
2022-10-03T09:50:16.752Z,5
2022-10-03T09:51:16.680Z,6
2022-10-03T09:52:16.685Z,5
2022-10-03T09:53:16.793Z,4
2022-10-03T09:54:16.752Z,4
2022-10-03T09:55:16.716Z,4
2022-10-03T09:56:16.711Z,5
2022-10-03T09:57:19.600Z,4
2022-10-03T09:58:16.751Z,5
2022-10-03T09:59:16.742Z,5
2022-10-03T10:00:16.848Z,4
2022-10-03T10:01:16.931Z,5
2022-10-03T10:02:16.744Z,5
2022-10-03T10:03:16.683Z,5
2022-10-03T10:04:24.749Z,5
2022-10-03T10:05:16.705Z,5
2022-10-03T10:06:16.785Z,4
2022-10-03T10:07:16.787Z,4
2022-10-03T10:08:16.794Z,5
2022-10-03T10:09:16.810Z,4
2022-10-03T10:10:16.984Z,3
2022-10-03T10:11:16.727Z,3
2022-10-03T10:12:16.718Z,3
2022-10-03T10:13:16.835Z,3
2022-10-03T10:14:16.752Z,3
2022-10-03T10:15:16.757Z,3
2022-10-03T10:16:16.792Z,3
2022-10-03T10:17:16.813Z,3
2022-10-03T10:18:16.879Z,4
2022-10-03T10:19:16.799Z,4
2022-10-03T10:20:16.853Z,4
2022-10-03T10:21:16.900Z,4
2022-10-03T10:22:16.893Z,3
2022-10-03T10:23:16.987Z,4
2022-10-03T10:24:16.897Z,4
2022-10-03T10:25:16.954Z,4
2022-10-03T10:26:17.017Z,4
2022-10-03T10:27:16.851Z,4
2022-10-03T10:28:16.784Z,3
2022-10-03T10:29:16.699Z,4
2022-10-03T10:30:16.747Z,3
2022-10-03T10:31:16.795Z,4
2022-10-03T10:32:21.302Z,3
2022-10-03T10:33:16.842Z,3
2022-10-03T10:34:16.761Z,3
2022-10-03T10:35:16.771Z,3
2022-10-03T10:36:16.765Z,3
2022-10-03T10:37:16.781Z,2
2022-10-03T10:38:16.755Z,3
2022-10-03T10:39:16.801Z,2
2022-10-03T10:40:16.751Z,2
2022-10-03T10:41:16.804Z,3
2022-10-03T10:42:16.806Z,3
2022-10-03T10:43:16.697Z,3
2022-10-03T10:44:16.691Z,3
2022-10-03T10:45:16.733Z,3
2022-10-03T10:46:16.828Z,3
2022-10-03T10:47:16.739Z,3
2022-10-03T10:48:16.848Z,2
2022-10-03T10:49:16.747Z,3
2022-10-03T10:50:16.780Z,3
2022-10-03T10:51:16.767Z,3
2022-10-03T10:52:16.696Z,3
2022-10-03T10:53:16.706Z,3
2022-10-03T10:54:16.706Z,3
2022-10-03T10:55:16.797Z,3
2022-10-03T10:56:16.827Z,2
2022-10-03T10:57:16.765Z,3
2022-10-03T10:58:16.729Z,3
2022-10-03T10:59:16.713Z,2
2022-10-03T11:00:16.729Z,3
2022-10-03T11:01:16.759Z,2
2022-10-03T11:02:16.699Z,3
2022-10-03T11:03:16.835Z,4
2022-10-03T11:04:16.783Z,3
2022-10-03T11:05:16.717Z,3
2022-10-03T11:06:16.817Z,2
2022-10-03T11:07:16.752Z,3
2022-10-03T11:08:17.241Z,3
2022-10-03T11:09:17.091Z,3
2022-10-03T11:10:16.799Z,3
2022-10-03T11:11:16.748Z,3
2022-10-03T11:12:16.733Z,3
2022-10-03T11:13:16.798Z,2
2022-10-03T11:14:16.805Z,3
2022-10-03T11:15:16.717Z,3
2022-10-03T11:16:16.795Z,3
2022-10-03T11:17:16.699Z,3
2022-10-03T11:18:16.742Z,2
2022-10-03T11:19:16.831Z,3
2022-10-03T11:20:16.881Z,3
2022-10-03T11:21:16.750Z,3
2022-10-03T11:22:16.706Z,3
2022-10-03T11:23:16.756Z,3
2022-10-03T11:24:16.704Z,3
2022-10-03T11:25:16.809Z,3
2022-10-03T11:26:16.696Z,3
2022-10-03T11:27:16.798Z,2
2022-10-03T11:28:19.062Z,3
2022-10-03T11:29:16.811Z,3
2022-10-03T11:30:16.715Z,3
2022-10-03T11:31:16.787Z,2
2022-10-03T11:32:16.722Z,2
2022-10-03T11:33:16.721Z,2
2022-10-03T11:34:16.832Z,2
2022-10-03T11:35:16.858Z,2
2022-10-03T11:36:16.750Z,2
2022-10-03T11:37:16.755Z,2
2022-10-03T11:38:16.698Z,2
2022-10-03T11:39:16.710Z,2
2022-10-03T11:40:16.799Z,2
2022-10-03T11:41:16.800Z,2
2022-10-03T11:42:16.777Z,2
2022-10-03T11:43:16.759Z,2
2022-10-03T11:44:16.806Z,2
2022-10-03T11:45:16.916Z,2
2022-10-03T11:46:16.920Z,2
2022-10-03T11:47:16.737Z,2
2022-10-03T11:48:16.836Z,2
2022-10-03T11:49:16.725Z,2
2022-10-03T11:50:16.888Z,2
2022-10-03T11:51:16.837Z,2
2022-10-03T11:52:16.748Z,1
2022-10-03T11:53:16.710Z,2
2022-10-03T11:54:30.468Z,2
2022-10-03T11:55:16.795Z,1
2022-10-03T11:56:16.777Z,2
2022-10-03T11:57:16.797Z,2
2022-10-03T11:58:16.791Z,2
2022-10-03T11:59:16.791Z,1
2022-10-03T12:00:16.814Z,2
2022-10-03T12:01:16.810Z,2
2022-10-03T12:02:16.850Z,2
2022-10-03T12:03:16.755Z,2
2022-10-03T12:04:16.721Z,2
2022-10-03T12:05:16.730Z,2
2022-10-03T12:06:16.779Z,2
2022-10-03T12:07:17.630Z,2
2022-10-03T12:08:16.743Z,2
2022-10-03T12:09:16.761Z,2
2022-10-03T12:10:16.770Z,1
2022-10-03T12:11:16.774Z,2
2022-10-03T12:12:16.765Z,2
2022-10-03T12:13:16.777Z,2
2022-10-03T12:14:16.785Z,2
2022-10-03T12:15:16.821Z,2
2022-10-03T12:16:16.795Z,2
2022-10-03T12:17:16.798Z,2
2022-10-03T12:18:16.836Z,2
2022-10-03T12:19:16.925Z,2
2022-10-03T12:20:16.974Z,2
2022-10-03T12:21:21.616Z,2
2022-10-03T12:22:16.840Z,2
2022-10-03T12:23:16.738Z,2
2022-10-03T12:24:16.758Z,2
2022-10-03T12:25:16.865Z,2
2022-10-03T12:26:16.759Z,2
2022-10-03T12:27:16.848Z,3
2022-10-03T12:28:16.797Z,2
2022-10-03T12:29:16.758Z,2
2022-10-03T12:30:16.724Z,2
2022-10-03T12:31:19.107Z,2
2022-10-03T12:32:16.794Z,2
2022-10-03T12:33:16.697Z,2
2022-10-03T12:34:16.817Z,2
2022-10-03T12:35:16.722Z,2
2022-10-03T12:36:16.833Z,2
2022-10-03T12:37:16.929Z,2
2022-10-03T12:38:16.739Z,2
2022-10-03T12:39:16.743Z,2
2022-10-03T12:40:16.952Z,2
2022-10-03T12:41:16.753Z,2
2022-10-03T12:42:16.767Z,2
2022-10-03T12:43:16.753Z,2
2022-10-03T12:44:16.742Z,2
2022-10-03T12:45:16.777Z,2
2022-10-03T12:46:16.868Z,2
2022-10-03T12:47:24.350Z,2
2022-10-03T12:48:16.792Z,2
2022-10-03T12:49:16.817Z,2
2022-10-03T12:50:16.819Z,2
2022-10-03T12:51:16.812Z,2
2022-10-03T12:52:16.814Z,4
2022-10-03T12:53:16.714Z,6
2022-10-03T12:54:16.761Z,6
2022-10-03T12:55:16.794Z,5
2022-10-03T12:56:16.743Z,4
2022-10-03T12:57:16.825Z,5
2022-10-03T12:58:16.779Z,2
2022-10-03T12:59:16.774Z,5
2022-10-03T13:00:16.805Z,4
2022-10-03T13:01:16.897Z,2
2022-10-03T13:02:16.897Z,2
2022-10-03T13:03:16.795Z,1
2022-10-03T13:04:16.732Z,2
2022-10-03T13:05:16.737Z,2
2022-10-03T13:06:16.827Z,2
2022-10-03T13:07:16.818Z,2
2022-10-03T13:08:16.714Z,2
2022-10-03T13:09:16.734Z,2
2022-10-03T13:10:16.762Z,2
2022-10-03T13:11:16.742Z,1
2022-10-03T13:12:16.737Z,2
2022-10-03T13:13:16.714Z,2
2022-10-03T13:14:16.872Z,3
2022-10-03T13:15:16.872Z,2
2022-10-03T13:16:16.886Z,2
2022-10-03T13:17:16.774Z,2
2022-10-03T13:18:16.717Z,2
2022-10-03T13:19:16.797Z,2
2022-10-03T13:20:16.851Z,1
2022-10-03T13:21:43.805Z,2
2022-10-03T13:22:16.820Z,2
2022-10-03T13:23:16.749Z,2
2022-10-03T13:24:16.716Z,2
2022-10-03T13:25:16.738Z,2
2022-10-03T13:26:18.490Z,2
2022-10-03T13:27:16.714Z,2
2022-10-03T13:28:16.758Z,2
2022-10-03T13:29:16.716Z,2
2022-10-03T13:30:16.786Z,2
2022-10-03T13:31:16.777Z,2
2022-10-03T13:32:16.786Z,2
2022-10-03T13:33:16.782Z,2
2022-10-03T13:34:16.716Z,1
2022-10-03T13:35:16.801Z,2
2022-10-03T13:36:16.813Z,2
2022-10-03T13:37:16.817Z,2
2022-10-03T13:38:16.814Z,2
2022-10-03T13:39:16.718Z,2
2022-10-03T13:40:16.788Z,2
2022-10-03T13:41:16.720Z,2
2022-10-03T13:42:16.724Z,2
2022-10-03T13:43:16.848Z,2
2022-10-03T13:44:16.852Z,2
2022-10-03T13:45:16.785Z,2
2022-10-03T13:46:16.996Z,2
2022-10-03T13:47:16.767Z,2
2022-10-03T13:48:16.727Z,2
2022-10-03T13:49:16.781Z,2
2022-10-03T13:50:16.806Z,2
2022-10-03T13:51:16.820Z,2
2022-10-03T13:52:16.793Z,2
2022-10-03T13:53:16.813Z,2
2022-10-03T13:54:16.767Z,2
2022-10-03T13:55:16.741Z,2
2022-10-03T13:56:16.824Z,1
2022-10-03T13:57:16.727Z,2
2022-10-03T13:58:16.718Z,2
2022-10-03T13:59:16.723Z,2
2022-10-03T14:00:16.771Z,2
2022-10-03T14:01:16.893Z,2
2022-10-03T14:02:16.887Z,3
2022-10-03T14:03:16.724Z,2
2022-10-03T14:04:16.773Z,2
2022-10-03T14:05:16.743Z,2
2022-10-03T14:06:16.786Z,2
2022-10-03T14:07:16.797Z,2
2022-10-03T14:08:16.800Z,2
2022-10-03T14:09:16.815Z,2
2022-10-03T14:10:16.833Z,2
2022-10-03T14:11:16.826Z,2
2022-10-03T14:12:24.774Z,2
2022-10-03T14:13:16.840Z,1
2022-10-03T14:14:16.724Z,2
2022-10-03T14:15:16.760Z,1
2022-10-03T14:16:16.972Z,2
2022-10-03T14:17:16.855Z,2
2022-10-03T14:18:16.779Z,2
2022-10-03T14:19:16.766Z,2
2022-10-03T14:20:16.813Z,3
2022-10-03T14:21:16.782Z,3
2022-10-03T14:22:16.755Z,2
2022-10-03T14:23:16.733Z,2
2022-10-03T14:24:16.772Z,2
2022-10-03T14:25:16.790Z,3
2022-10-03T14:26:16.812Z,2
2022-10-03T14:27:16.733Z,3
2022-10-03T14:28:16.903Z,4
2022-10-03T14:29:16.828Z,2
2022-10-03T14:30:16.904Z,2
2022-10-03T14:31:16.818Z,3
2022-10-03T14:32:42.235Z,3
2022-10-03T14:33:16.755Z,5
2022-10-03T14:34:16.759Z,9
2022-10-03T14:35:16.796Z,6